sensor_id;sensor_type;location;lat;lon;timestamp;pressure;altitude;pressure_sealevel;temperature
48628;BMP280;34424;52.234;6.500;2023-11-19T00:01:41;100660.1;;;9.81
48628;BMP280;34424;52.234;6.500;2023-11-19T00:06:41;100660.3;;;9.9
48628;BMP280;34424;52.234;6.500;2023-11-19T00:11:44;100647.1;;;10.01
48628;BMP280;34424;52.234;6.500;2023-11-19T00:16:41;100640.1;;;10.07
48628;BMP280;34424;52.234;6.500;2023-11-19T00:21:41;100632.8;;;10.04
48628;BMP280;34424;52.234;6.500;2023-11-19T00:26:41;100622.8;;;10.08
48628;BMP280;34424;52.234;6.500;2023-11-19T00:31:41;100628.1;;;10.19
48628;BMP280;34424;52.234;6.500;2023-11-19T00:36:41;100627.1;;;10.28
48628;BMP280;34424;52.234;6.500;2023-11-19T00:41:41;100628.8;;;10.29
48628;BMP280;34424;52.234;6.500;2023-11-19T00:46:41;100623.7;;;10.39
48628;BMP280;34424;52.234;6.500;2023-11-19T00:51:41;100606.9;;;10.36
48628;BMP280;34424;52.234;6.500;2023-11-19T00:56:41;100598.2;;;10.42
48628;BMP280;34424;52.234;6.500;2023-11-19T01:01:43;100587.4;;;10.46
48628;BMP280;34424;52.234;6.500;2023-11-19T01:06:41;100571;;;10.5
48628;BMP280;34424;52.234;6.500;2023-11-19T01:11:41;100556;;;10.55
48628;BMP280;34424;52.234;6.500;2023-11-19T01:16:41;100548;;;10.56
48628;BMP280;34424;52.234;6.500;2023-11-19T01:21:41;100567.1;;;10.55
48628;BMP280;34424;52.234;6.500;2023-11-19T01:26:42;100565.2;;;10.62
48628;BMP280;34424;52.234;6.500;2023-11-19T01:31:41;100579.7;;;10.56
48628;BMP280;34424;52.234;6.500;2023-11-19T01:36:41;100578.5;;;10.59
48628;BMP280;34424;52.234;6.500;2023-11-19T01:41:41;100583.7;;;10.64
48628;BMP280;34424;52.234;6.500;2023-11-19T01:46:41;100573.9;;;10.68
48628;BMP280;34424;52.234;6.500;2023-11-19T01:51:41;100567.3;;;10.65
48628;BMP280;34424;52.234;6.500;2023-11-19T01:56:42;100562;;;10.59
48628;BMP280;34424;52.234;6.500;2023-11-19T02:01:41;100553.2;;;10.63
48628;BMP280;34424;52.234;6.500;2023-11-19T02:06:41;100553.6;;;10.65
48628;BMP280;34424;52.234;6.500;2023-11-19T02:11:43;100531.5;;;10.59
48628;BMP280;34424;52.234;6.500;2023-11-19T02:16:41;100529.4;;;10.49
48628;BMP280;34424;52.234;6.500;2023-11-19T02:21:41;100538.3;;;10.41
48628;BMP280;34424;52.234;6.500;2023-11-19T02:26:43;100532.3;;;10.35
48628;BMP280;34424;52.234;6.500;2023-11-19T02:31:41;100529.5;;;10.32
48628;BMP280;34424;52.234;6.500;2023-11-19T02:36:42;100537.8;;;10.35
48628;BMP280;34424;52.234;6.500;2023-11-19T02:41:41;100528.5;;;10.43
48628;BMP280;34424;52.234;6.500;2023-11-19T02:46:42;100531.7;;;10.45
48628;BMP280;34424;52.234;6.500;2023-11-19T02:51:41;100531.2;;;10.5
48628;BMP280;34424;52.234;6.500;2023-11-19T02:56:41;100548;;;10.51
48628;BMP280;34424;52.234;6.500;2023-11-19T03:01:41;100553.5;;;10.54
48628;BMP280;34424;52.234;6.500;2023-11-19T03:06:41;100551.3;;;10.62
48628;BMP280;34424;52.234;6.500;2023-11-19T03:11:41;100543.4;;;10.46
48628;BMP280;34424;52.234;6.500;2023-11-19T03:16:41;100546.9;;;10.25
48628;BMP280;34424;52.234;6.500;2023-11-19T03:21:41;100541.2;;;10.43
48628;BMP280;34424;52.234;6.500;2023-11-19T03:26:41;100551.5;;;10.41
48628;BMP280;34424;52.234;6.500;2023-11-19T03:31:45;100548.5;;;10.45
48628;BMP280;34424;52.234;6.500;2023-11-19T03:36:41;100542.7;;;10.39
48628;BMP280;34424;52.234;6.500;2023-11-19T03:41:41;100551.3;;;10.3
48628;BMP280;34424;52.234;6.500;2023-11-19T03:46:41;100560.8;;;10.3
48628;BMP280;34424;52.234;6.500;2023-11-19T03:51:42;100557.8;;;10.4
48628;BMP280;34424;52.234;6.500;2023-11-19T03:56:41;100551.7;;;10.43
48628;BMP280;34424;52.234;6.500;2023-11-19T04:01:41;100554.5;;;10.42
48628;BMP280;34424;52.234;6.500;2023-11-19T04:06:41;100544;;;10.39
48628;BMP280;34424;52.234;6.500;2023-11-19T04:11:41;100544.2;;;10.32
48628;BMP280;34424;52.234;6.500;2023-11-19T04:16:41;100536.1;;;10.1
48628;BMP280;34424;52.234;6.500;2023-11-19T04:21:43;100527.1;;;9.78
48628;BMP280;34424;52.234;6.500;2023-11-19T04:26:43;100534.7;;;9.44
48628;BMP280;34424;52.234;6.500;2023-11-19T04:31:41;100550.2;;;9.25
48628;BMP280;34424;52.234;6.500;2023-11-19T04:36:41;100548;;;9.17
48628;BMP280;34424;52.234;6.500;2023-11-19T04:41:49;100552.6;;;9.01
48628;BMP280;34424;52.234;6.500;2023-11-19T04:46:51;100564;;;8.96
48628;BMP280;34424;52.234;6.500;2023-11-19T04:51:52;100565.9;;;9.09
48628;BMP280;34424;52.234;6.500;2023-11-19T04:56:54;100567.7;;;9.15
48628;BMP280;34424;52.234;6.500;2023-11-19T05:01:50;100562.2;;;9.32
48628;BMP280;34424;52.234;6.500;2023-11-19T05:06:50;100566.8;;;9.48
48628;BMP280;34424;52.234;6.500;2023-11-19T05:11:52;100561.8;;;9.59
48628;BMP280;34424;52.234;6.500;2023-11-19T05:16:49;100558.1;;;9.59
48628;BMP280;34424;52.234;6.500;2023-11-19T05:21:50;100557.3;;;9.58
48628;BMP280;34424;52.234;6.500;2023-11-19T05:26:49;100568.7;;;9.72
48628;BMP280;34424;52.234;6.500;2023-11-19T05:31:49;100579.6;;;9.78
48628;BMP280;34424;52.234;6.500;2023-11-19T05:36:49;100571.1;;;9.82
48628;BMP280;34424;52.234;6.500;2023-11-19T05:41:48;100566.8;;;9.79
48628;BMP280;34424;52.234;6.500;2023-11-19T05:46:49;100567.6;;;9.82
48628;BMP280;34424;52.234;6.500;2023-11-19T05:51:49;100568;;;9.82
48628;BMP280;34424;52.234;6.500;2023-11-19T05:56:50;100581.4;;;9.71
48628;BMP280;34424;52.234;6.500;2023-11-19T06:01:48;100578.1;;;9.66
48628;BMP280;34424;52.234;6.500;2023-11-19T06:06:47;100581.5;;;9.6
48628;BMP280;34424;52.234;6.500;2023-11-19T06:11:50;100589.8;;;9.6
48628;BMP280;34424;52.234;6.500;2023-11-19T06:16:47;100593.9;;;9.55
48628;BMP280;34424;52.234;6.500;2023-11-19T06:21:47;100589;;;9.49
48628;BMP280;34424;52.234;6.500;2023-11-19T06:26:47;100587.6;;;9.47
48628;BMP280;34424;52.234;6.500;2023-11-19T06:31:49;100594.2;;;9.52
48628;BMP280;34424;52.234;6.500;2023-11-19T06:36:47;100595.7;;;9.56
48628;BMP280;34424;52.234;6.500;2023-11-19T06:41:48;100588.8;;;9.63
48628;BMP280;34424;52.234;6.500;2023-11-19T06:46:46;100596.3;;;9.67
48628;BMP280;34424;52.234;6.500;2023-11-19T06:51:51;100593.8;;;9.68
48628;BMP280;34424;52.234;6.500;2023-11-19T06:56:46;100598;;;9.64
48628;BMP280;34424;52.234;6.500;2023-11-19T07:01:48;100598.1;;;9.59
48628;BMP280;34424;52.234;6.500;2023-11-19T07:06:46;100594.7;;;9.58
48628;BMP280;34424;52.234;6.500;2023-11-19T07:11:45;100595.7;;;9.54
48628;BMP280;34424;52.234;6.500;2023-11-19T07:16:46;100607.5;;;9.62
48628;BMP280;34424;52.234;6.500;2023-11-19T07:21:49;100610.3;;;9.66
48628;BMP280;34424;52.234;6.500;2023-11-19T07:26:46;100611.5;;;9.66
48628;BMP280;34424;52.234;6.500;2023-11-19T07:31:44;100616.2;;;9.7
48628;BMP280;34424;52.234;6.500;2023-11-19T07:36:45;100619.6;;;9.69
48628;BMP280;34424;52.234;6.500;2023-11-19T07:41:44;100628.1;;;9.77
48628;BMP280;34424;52.234;6.500;2023-11-19T07:46:44;100633.7;;;9.79
48628;BMP280;34424;52.234;6.500;2023-11-19T07:51:44;100635;;;9.88
48628;BMP280;34424;52.234;6.500;2023-11-19T07:56:44;100645;;;9.9
48628;BMP280;34424;52.234;6.500;2023-11-19T08:01:43;100656.2;;;9.91
48628;BMP280;34424;52.234;6.500;2023-11-19T08:06:43;100648.7;;;10.02
48628;BMP280;34424;52.234;6.500;2023-11-19T08:11:44;100647.3;;;10.05
48628;BMP280;34424;52.234;6.500;2023-11-19T08:16:43;100655.4;;;10.25
48628;BMP280;34424;52.234;6.500;2023-11-19T08:21:43;100647.4;;;10.34
48628;BMP280;34424;52.234;6.500;2023-11-19T08:26:42;100649;;;10.58
48628;BMP280;34424;52.234;6.500;2023-11-19T08:31:42;100643.6;;;10.99
48628;BMP280;34424;52.234;6.500;2023-11-19T08:36:42;100645;;;11.63
48628;BMP280;34424;52.234;6.500;2023-11-19T08:41:43;100640.4;;;11.39
48628;BMP280;34424;52.234;6.500;2023-11-19T08:46:42;100637;;;11.86
48628;BMP280;34424;52.234;6.500;2023-11-19T08:51:42;100635.9;;;11.92
48628;BMP280;34424;52.234;6.500;2023-11-19T08:56:43;100643.8;;;12.15
48628;BMP280;34424;52.234;6.500;2023-11-19T09:01:42;100631.4;;;11.99
48628;BMP280;34424;52.234;6.500;2023-11-19T09:06:42;100644.1;;;11.6
48628;BMP280;34424;52.234;6.500;2023-11-19T09:11:42;100654.8;;;11.12
48628;BMP280;34424;52.234;6.500;2023-11-19T09:16:42;100638.4;;;10.78
48628;BMP280;34424;52.234;6.500;2023-11-19T09:21:43;100644;;;10.83
48628;BMP280;34424;52.234;6.500;2023-11-19T09:26:42;100649.4;;;10.88
48628;BMP280;34424;52.234;6.500;2023-11-19T09:31:42;100647;;;11.02
48628;BMP280;34424;52.234;6.500;2023-11-19T09:36:42;100645.9;;;10.96
48628;BMP280;34424;52.234;6.500;2023-11-19T09:41:42;100646.5;;;11.01
48628;BMP280;34424;52.234;6.500;2023-11-19T09:46:42;100643.9;;;11.56
48628;BMP280;34424;52.234;6.500;2023-11-19T09:51:42;100651.8;;;11.98
48628;BMP280;34424;52.234;6.500;2023-11-19T09:56:42;100636.6;;;11.94
48628;BMP280;34424;52.234;6.500;2023-11-19T10:01:42;100640.2;;;12.47
48628;BMP280;34424;52.234;6.500;2023-11-19T10:06:42;100636.4;;;13.25
48628;BMP280;34424;52.234;6.500;2023-11-19T10:11:42;100637.8;;;13.52
48628;BMP280;34424;52.234;6.500;2023-11-19T10:16:43;100632.4;;;13.92
48628;BMP280;34424;52.234;6.500;2023-11-19T10:21:42;100629.8;;;12.89
48628;BMP280;34424;52.234;6.500;2023-11-19T10:26:42;100627.9;;;12.03
48628;BMP280;34424;52.234;6.500;2023-11-19T10:31:42;100641.2;;;11.62
48628;BMP280;34424;52.234;6.500;2023-11-19T10:36:50;100637;;;11.72
48628;BMP280;34424;52.234;6.500;2023-11-19T10:41:42;100628.4;;;11.76
48628;BMP280;34424;52.234;6.500;2023-11-19T10:46:49;100630.1;;;12.21
48628;BMP280;34424;52.234;6.500;2023-11-19T10:51:42;100626.2;;;11.98
48628;BMP280;34424;52.234;6.500;2023-11-19T10:56:42;100620.8;;;11.75
48628;BMP280;34424;52.234;6.500;2023-11-19T11:01:44;100630.5;;;11.47
48628;BMP280;34424;52.234;6.500;2023-11-19T11:06:42;100621.7;;;11.41
48628;BMP280;34424;52.234;6.500;2023-11-19T11:11:42;100625.7;;;11.39
48628;BMP280;34424;52.234;6.500;2023-11-19T11:16:42;100620.2;;;11.44
48628;BMP280;34424;52.234;6.500;2023-11-19T11:21:42;100620.4;;;11.41
48628;BMP280;34424;52.234;6.500;2023-11-19T11:27:04;100620.4;;;11.24
48628;BMP280;34424;52.234;6.500;2023-11-19T11:31:44;100610.7;;;11.25
48628;BMP280;34424;52.234;6.500;2023-11-19T11:36:43;100616.5;;;11.3
48628;BMP280;34424;52.234;6.500;2023-11-19T11:41:42;100610.3;;;11.23
48628;BMP280;34424;52.234;6.500;2023-11-19T11:46:59;100594.9;;;11.36
48628;BMP280;34424;52.234;6.500;2023-11-19T11:52:02;100589.3;;;11.43
48628;BMP280;34424;52.234;6.500;2023-11-19T11:56:45;100587;;;11.62
48628;BMP280;34424;52.234;6.500;2023-11-19T12:01:42;100589.7;;;12.31
48628;BMP280;34424;52.234;6.500;2023-11-19T12:06:42;100581;;;12.22
48628;BMP280;34424;52.234;6.500;2023-11-19T12:11:42;100573.7;;;12.03
48628;BMP280;34424;52.234;6.500;2023-11-19T12:16:43;100568.5;;;11.89
48628;BMP280;34424;52.234;6.500;2023-11-19T12:21:43;100570.5;;;11.9
48628;BMP280;34424;52.234;6.500;2023-11-19T12:26:47;100563.8;;;11.99
48628;BMP280;34424;52.234;6.500;2023-11-19T12:31:42;100575;;;12.21
48628;BMP280;34424;52.234;6.500;2023-11-19T12:36:44;100573.3;;;14
48628;BMP280;34424;52.234;6.500;2023-11-19T12:41:54;100581.5;;;13.76
48628;BMP280;34424;52.234;6.500;2023-11-19T12:46:42;100569.8;;;12.54
48628;BMP280;34424;52.234;6.500;2023-11-19T12:51:43;100574.8;;;11.96
48628;BMP280;34424;52.234;6.500;2023-11-19T12:56:51;100567.2;;;11.88
48628;BMP280;34424;52.234;6.500;2023-11-19T13:01:42;100566.4;;;11.88
48628;BMP280;34424;52.234;6.500;2023-11-19T13:06:47;100572.3;;;11.65
48628;BMP280;34424;52.234;6.500;2023-11-19T13:11:46;100568.5;;;11.64
48628;BMP280;34424;52.234;6.500;2023-11-19T13:16:42;100555.2;;;11.84
48628;BMP280;34424;52.234;6.500;2023-11-19T13:21:42;100563.7;;;11.96
48628;BMP280;34424;52.234;6.500;2023-11-19T13:26:42;100561.6;;;12.02
48628;BMP280;34424;52.234;6.500;2023-11-19T13:31:42;100554;;;11.81
48628;BMP280;34424;52.234;6.500;2023-11-19T13:36:42;100562;;;11.76
48628;BMP280;34424;52.234;6.500;2023-11-19T13:41:42;100566.4;;;11.69
48628;BMP280;34424;52.234;6.500;2023-11-19T13:46:42;100558.6;;;11.43
48628;BMP280;34424;52.234;6.500;2023-11-19T13:51:42;100550.5;;;11.36
48628;BMP280;34424;52.234;6.500;2023-11-19T13:56:42;100548.4;;;11.43
48628;BMP280;34424;52.234;6.500;2023-11-19T14:01:42;100556;;;11.34
48628;BMP280;34424;52.234;6.500;2023-11-19T14:06:43;100556.3;;;11.24
48628;BMP280;34424;52.234;6.500;2023-11-19T14:11:42;100549.5;;;11.09
48628;BMP280;34424;52.234;6.500;2023-11-19T14:16:42;100551;;;11.14
48628;BMP280;34424;52.234;6.500;2023-11-19T14:21:42;100551.3;;;10.88
48628;BMP280;34424;52.234;6.500;2023-11-19T14:26:42;100549.1;;;10.77
48628;BMP280;34424;52.234;6.500;2023-11-19T14:31:42;100547.9;;;10.87
48628;BMP280;34424;52.234;6.500;2023-11-19T14:36:42;100547;;;10.81
48628;BMP280;34424;52.234;6.500;2023-11-19T14:41:42;100542;;;10.75
48628;BMP280;34424;52.234;6.500;2023-11-19T14:46:42;100541.6;;;10.85
48628;BMP280;34424;52.234;6.500;2023-11-19T14:51:42;100547.9;;;10.79
48628;BMP280;34424;52.234;6.500;2023-11-19T14:56:42;100541.7;;;10.74
48628;BMP280;34424;52.234;6.500;2023-11-19T15:01:42;100541.8;;;10.55
48628;BMP280;34424;52.234;6.500;2023-11-19T15:06:42;100550.9;;;10.4
48628;BMP280;34424;52.234;6.500;2023-11-19T15:11:42;100551.3;;;10.13
48628;BMP280;34424;52.234;6.500;2023-11-19T15:16:42;100547.8;;;9.94
48628;BMP280;34424;52.234;6.500;2023-11-19T15:21:42;100545.2;;;9.91
48628;BMP280;34424;52.234;6.500;2023-11-19T15:26:42;100552.8;;;9.91
48628;BMP280;34424;52.234;6.500;2023-11-19T15:31:42;100553.4;;;9.82
48628;BMP280;34424;52.234;6.500;2023-11-19T15:36:42;100558;;;9.83
48628;BMP280;34424;52.234;6.500;2023-11-19T15:41:42;100556.1;;;9.82
48628;BMP280;34424;52.234;6.500;2023-11-19T15:46:43;100556.6;;;9.8
48628;BMP280;34424;52.234;6.500;2023-11-19T15:51:42;100549.5;;;9.82
48628;BMP280;34424;52.234;6.500;2023-11-19T15:56:42;100550.7;;;9.85
48628;BMP280;34424;52.234;6.500;2023-11-19T16:01:42;100548.1;;;9.84
48628;BMP280;34424;52.234;6.500;2023-11-19T16:06:42;100551.6;;;9.84
48628;BMP280;34424;52.234;6.500;2023-11-19T16:11:42;100550.3;;;9.91
48628;BMP280;34424;52.234;6.500;2023-11-19T16:16:42;100548.8;;;9.91
48628;BMP280;34424;52.234;6.500;2023-11-19T16:21:42;100552.3;;;9.81
48628;BMP280;34424;52.234;6.500;2023-11-19T16:26:42;100556.7;;;9.86
48628;BMP280;34424;52.234;6.500;2023-11-19T16:31:42;100560.8;;;9.89
48628;BMP280;34424;52.234;6.500;2023-11-19T16:36:42;100554.3;;;10.01
48628;BMP280;34424;52.234;6.500;2023-11-19T16:41:42;100559.3;;;9.99
48628;BMP280;34424;52.234;6.500;2023-11-19T16:46:42;100559.9;;;10.05
48628;BMP280;34424;52.234;6.500;2023-11-19T16:51:42;100555.6;;;10.05
48628;BMP280;34424;52.234;6.500;2023-11-19T16:56:42;100560.9;;;10.04
48628;BMP280;34424;52.234;6.500;2023-11-19T17:01:42;100559.7;;;9.98
48628;BMP280;34424;52.234;6.500;2023-11-19T17:06:42;100566.8;;;9.99
48628;BMP280;34424;52.234;6.500;2023-11-19T17:11:42;100573.3;;;9.99
48628;BMP280;34424;52.234;6.500;2023-11-19T17:16:42;100568.9;;;10.02
48628;BMP280;34424;52.234;6.500;2023-11-19T17:21:42;100561.8;;;10.01
48628;BMP280;34424;52.234;6.500;2023-11-19T17:26:42;100560.6;;;9.93
48628;BMP280;34424;52.234;6.500;2023-11-19T17:31:42;100558.6;;;9.94
48628;BMP280;34424;52.234;6.500;2023-11-19T17:36:42;100558;;;9.86
48628;BMP280;34424;52.234;6.500;2023-11-19T17:41:42;100556.1;;;9.81
48628;BMP280;34424;52.234;6.500;2023-11-19T17:46:42;100552.4;;;9.79
48628;BMP280;34424;52.234;6.500;2023-11-19T17:51:42;100545.9;;;9.7
48628;BMP280;34424;52.234;6.500;2023-11-19T17:56:42;100542.2;;;9.57
48628;BMP280;34424;52.234;6.500;2023-11-19T18:01:42;100542;;;9.41
48628;BMP280;34424;52.234;6.500;2023-11-19T18:06:43;100537.6;;;9.26
48628;BMP280;34424;52.234;6.500;2023-11-19T18:11:42;100537.1;;;9.19
48628;BMP280;34424;52.234;6.500;2023-11-19T18:16:42;100530.2;;;9.09
48628;BMP280;34424;52.234;6.500;2023-11-19T18:21:42;100529.6;;;9.05
48628;BMP280;34424;52.234;6.500;2023-11-19T18:26:42;100517.2;;;9.03
48628;BMP280;34424;52.234;6.500;2023-11-19T18:31:42;100523.8;;;9.04
48628;BMP280;34424;52.234;6.500;2023-11-19T18:36:42;100515.1;;;9.02
48628;BMP280;34424;52.234;6.500;2023-11-19T18:41:42;100516.7;;;9.05
48628;BMP280;34424;52.234;6.500;2023-11-19T18:46:42;100513.1;;;9.01
48628;BMP280;34424;52.234;6.500;2023-11-19T18:51:42;100515.2;;;9.04
48628;BMP280;34424;52.234;6.500;2023-11-19T18:56:42;100509.7;;;9.02
48628;BMP280;34424;52.234;6.500;2023-11-19T19:01:42;100505.1;;;9.02
48628;BMP280;34424;52.234;6.500;2023-11-19T19:06:42;100500.4;;;9.05
48628;BMP280;34424;52.234;6.500;2023-11-19T19:11:42;100498.2;;;9.05
48628;BMP280;34424;52.234;6.500;2023-11-19T19:16:42;100490.4;;;9.07
48628;BMP280;34424;52.234;6.500;2023-11-19T19:21:42;100494.7;;;9.07
48628;BMP280;34424;52.234;6.500;2023-11-19T19:26:42;100485.1;;;9.07
48628;BMP280;34424;52.234;6.500;2023-11-19T19:31:42;100487.6;;;9.06
48628;BMP280;34424;52.234;6.500;2023-11-19T19:36:42;100495.2;;;9.04
48628;BMP280;34424;52.234;6.500;2023-11-19T19:41:42;100477.3;;;9.07
48628;BMP280;34424;52.234;6.500;2023-11-19T19:46:42;100474.5;;;9.07
48628;BMP280;34424;52.234;6.500;2023-11-19T19:51:42;100470.1;;;9.06
48628;BMP280;34424;52.234;6.500;2023-11-19T19:56:42;100466.9;;;9.05
48628;BMP280;34424;52.234;6.500;2023-11-19T20:01:42;100461.1;;;9.08
48628;BMP280;34424;52.234;6.500;2023-11-19T20:06:42;100465.6;;;9.08
48628;BMP280;34424;52.234;6.500;2023-11-19T20:11:42;100458.1;;;9.09
48628;BMP280;34424;52.234;6.500;2023-11-19T20:16:42;100457.4;;;9.09
48628;BMP280;34424;52.234;6.500;2023-11-19T20:21:42;100454.6;;;9.1
48628;BMP280;34424;52.234;6.500;2023-11-19T20:26:42;100456;;;9.1
48628;BMP280;34424;52.234;6.500;2023-11-19T20:31:43;100461.3;;;9.12
48628;BMP280;34424;52.234;6.500;2023-11-19T20:36:42;100459.4;;;9.14
48628;BMP280;34424;52.234;6.500;2023-11-19T20:41:42;100463.9;;;9.14
48628;BMP280;34424;52.234;6.500;2023-11-19T20:46:42;100468.4;;;9.15
48628;BMP280;34424;52.234;6.500;2023-11-19T20:51:42;100465.1;;;9.16
48628;BMP280;34424;52.234;6.500;2023-11-19T20:56:42;100470.5;;;9.2
48628;BMP280;34424;52.234;6.500;2023-11-19T21:01:42;100461.1;;;9.2
48628;BMP280;34424;52.234;6.500;2023-11-19T21:06:42;100470.7;;;9.23
48628;BMP280;34424;52.234;6.500;2023-11-19T21:11:42;100471.3;;;9.25
48628;BMP280;34424;52.234;6.500;2023-11-19T21:16:42;100479.5;;;9.26
48628;BMP280;34424;52.234;6.500;2023-11-19T21:21:42;100476.6;;;9.28
48628;BMP280;34424;52.234;6.500;2023-11-19T21:26:42;100473.7;;;9.31
48628;BMP280;34424;52.234;6.500;2023-11-19T21:31:42;100475.6;;;9.32
48628;BMP280;34424;52.234;6.500;2023-11-19T21:36:42;100474.4;;;9.37
48628;BMP280;34424;52.234;6.500;2023-11-19T21:41:42;100476.8;;;9.39
48628;BMP280;34424;52.234;6.500;2023-11-19T21:46:42;100476.5;;;9.42
48628;BMP280;34424;52.234;6.500;2023-11-19T21:51:42;100476.8;;;9.43
48628;BMP280;34424;52.234;6.500;2023-11-19T21:56:42;100471.4;;;9.46
48628;BMP280;34424;52.234;6.500;2023-11-19T22:01:42;100471;;;9.46
48628;BMP280;34424;52.234;6.500;2023-11-19T22:06:42;100464.8;;;9.47
48628;BMP280;34424;52.234;6.500;2023-11-19T22:11:42;100469.2;;;9.49
48628;BMP280;34424;52.234;6.500;2023-11-19T22:16:42;100473;;;9.49
48628;BMP280;34424;52.234;6.500;2023-11-19T22:21:42;100473.4;;;9.52
48628;BMP280;34424;52.234;6.500;2023-11-19T22:26:42;100479.5;;;9.54
48628;BMP280;34424;52.234;6.500;2023-11-19T22:31:42;100486.7;;;9.54
48628;BMP280;34424;52.234;6.500;2023-11-19T22:36:42;100486.1;;;9.56
48628;BMP280;34424;52.234;6.500;2023-11-19T22:41:42;100483.5;;;9.56
48628;BMP280;34424;52.234;6.500;2023-11-19T22:46:42;100490.9;;;9.54
48628;BMP280;34424;52.234;6.500;2023-11-19T22:51:42;100488.6;;;9.53
48628;BMP280;34424;52.234;6.500;2023-11-19T22:56:42;100488.7;;;9.52
48628;BMP280;34424;52.234;6.500;2023-11-19T23:01:42;100497.7;;;9.51
48628;BMP280;34424;52.234;6.500;2023-11-19T23:06:42;100498.2;;;9.55
48628;BMP280;34424;52.234;6.500;2023-11-19T23:11:42;100503.6;;;9.55
48628;BMP280;34424;52.234;6.500;2023-11-19T23:16:42;100502.1;;;9.56
48628;BMP280;34424;52.234;6.500;2023-11-19T23:21:42;100508.5;;;9.54
48628;BMP280;34424;52.234;6.500;2023-11-19T23:26:42;100514.1;;;9.54
48628;BMP280;34424;52.234;6.500;2023-11-19T23:31:42;100517.4;;;9.54
48628;BMP280;34424;52.234;6.500;2023-11-19T23:36:42;100516.6;;;9.54
48628;BMP280;34424;52.234;6.500;2023-11-19T23:41:42;100513.1;;;9.53
48628;BMP280;34424;52.234;6.500;2023-11-19T23:46:42;100514.8;;;9.52
48628;BMP280;34424;52.234;6.500;2023-11-19T23:51:42;100513.9;;;9.51
48628;BMP280;34424;52.234;6.500;2023-11-19T23:56:42;100509.5;;;9.52
